Time;durP1;ratioP1;P1;durP2;ratioP2;P2;SDS_P1;SDS_P2;PMS_P1;PMS_P2;Temp;Humidity;BMP_temperature;BMP_pressure;BME280_temperature;BME280_humidity;BME280_pressure;Samples;Min_cycle;Max_cycle;Signal;HPM_P1;HPM_P2
2024/02/08 00:00:00;;;;;;;1.65;1.15;;;9.20;86.00;;;;;;4984780;28;20073;-62
2024/02/08 00:02:25;;;;;;;1.63;1.17;;;9.30;85.90;;;;;;4985178;28;20422;-59
2024/02/08 00:04:51;;;;;;;1.50;1.10;;;9.30;86.00;;;;;;4980387;28;20038;-62
2024/02/08 00:07:17;;;;;;;1.20;1.10;;;9.30;86.10;;;;;;4981441;28;20530;-62
2024/02/08 00:09:43;;;;;;;2.15;1.20;;;9.30;86.20;;;;;;4981544;28;20069;-62
2024/02/08 00:12:08;;;;;;;1.27;0.95;;;9.30;86.00;;;;;;4980210;28;20113;-62
2024/02/08 00:14:34;;;;;;;2.47;1.00;;;9.30;86.20;;;;;;4982273;28;20038;-61
2024/02/08 00:17:02;;;;;;;2.45;1.02;;;9.30;86.20;;;;;;4984745;28;20164;-62
2024/02/08 00:19:28;;;;;;;0.95;0.88;;;9.20;86.60;;;;;;4980849;28;20030;-63
2024/02/08 00:21:55;;;;;;;1.58;1.00;;;9.30;86.30;;;;;;4979015;28;20169;-62
2024/02/08 00:24:20;;;;;;;0.95;0.85;;;9.30;86.50;;;;;;4981363;28;20501;-62
2024/02/08 00:26:46;;;;;;;1.42;0.95;;;9.30;86.40;;;;;;4983865;28;20045;-62
2024/02/08 00:29:12;;;;;;;1.50;0.85;;;9.30;86.50;;;;;;4977846;28;20449;-62
2024/02/08 00:31:38;;;;;;;0.80;0.80;;;9.30;86.70;;;;;;4986845;28;20022;-62
2024/02/08 00:34:03;;;;;;;1.38;1.00;;;9.30;86.60;;;;;;4984693;28;20035;-60
2024/02/08 00:36:29;;;;;;;1.02;0.93;;;9.30;86.70;;;;;;4983388;28;20409;-61
2024/02/08 00:38:55;;;;;;;1.23;0.68;;;9.30;86.40;;;;;;4986003;28;20063;-61
2024/02/08 00:41:23;;;;;;;1.35;0.88;;;9.30;86.40;;;;;;4987301;28;20558;-61
2024/02/08 00:43:50;;;;;;;1.38;0.90;;;9.40;86.60;;;;;;4985240;28;20097;-62
2024/02/08 00:46:16;;;;;;;0.90;0.80;;;9.40;86.90;;;;;;4985348;28;20551;-61
2024/02/08 00:48:43;;;;;;;1.38;0.90;;;9.40;86.70;;;;;;4979458;28;20342;-64
2024/02/08 00:51:09;;;;;;;1.10;1.00;;;9.40;86.60;;;;;;4984954;28;20542;-60
2024/02/08 00:53:35;;;;;;;0.93;0.77;;;9.40;86.70;;;;;;4984228;28;20552;-60
2024/02/08 00:56:01;;;;;;;2.10;0.88;;;9.40;86.90;;;;;;4988837;28;20042;-62
2024/02/08 00:58:26;;;;;;;1.23;1.00;;;9.40;87.20;;;;;;4985232;28;20045;-62
2024/02/08 01:00:53;;;;;;;1.00;1.00;;;9.40;87.10;;;;;;4985418;28;20027;-62
2024/02/08 01:03:19;;;;;;;1.05;0.95;;;9.40;87.10;;;;;;4979890;28;20121;-62
2024/02/08 01:05:52;;;;;;;0.82;0.70;;;9.50;86.90;;;;;;4980736;28;20567;-62
2024/02/08 01:08:17;;;;;;;1.20;1.10;;;9.50;87.10;;;;;;4986509;28;20031;-63
2024/02/08 01:10:43;;;;;;;2.55;0.98;;;9.50;87.30;;;;;;4984712;28;20240;-60
2024/02/08 01:13:09;;;;;;;1.00;0.90;;;9.50;87.30;;;;;;4986812;28;20030;-61
2024/02/08 01:15:37;;;;;;;1.45;0.90;;;9.50;87.20;;;;;;4979465;28;20041;-61
2024/02/08 01:18:03;;;;;;;0.95;0.85;;;9.50;87.10;;;;;;4984500;28;20031;-62
2024/02/08 01:20:29;;;;;;;1.88;1.02;;;9.50;87.10;;;;;;4979609;28;20034;-61
2024/02/08 01:22:55;;;;;;;0.85;0.82;;;9.50;87.10;;;;;;4983119;28;20038;-62
2024/02/08 01:25:21;;;;;;;2.60;0.80;;;9.50;87.10;;;;;;4984364;28;20038;-62
2024/02/08 01:27:46;;;;;;;1.00;0.90;;;9.50;87.30;;;;;;4980932;28;20046;-62
2024/02/08 01:30:15;;;;;;;0.85;0.80;;;9.50;87.30;;;;;;4987236;28;20449;-61
2024/02/08 01:32:41;;;;;;;1.20;1.00;;;9.50;87.30;;;;;;4978241;28;20046;-63
2024/02/08 01:35:10;;;;;;;1.65;1.00;;;9.50;87.60;;;;;;4988875;28;20034;-62
2024/02/08 01:37:38;;;;;;;1.27;1.00;;;9.50;87.60;;;;;;4981145;28;20050;-62
2024/02/08 01:40:06;;;;;;;1.60;1.10;;;9.50;87.60;;;;;;4978721;28;20525;-62
2024/02/08 01:42:37;;;;;;;1.17;1.00;;;9.50;87.90;;;;;;4986890;28;20111;-63
2024/02/08 01:45:30;;;;;;;1.17;1.00;;;9.50;87.60;;;;;;4987048;28;20042;-60
2024/02/08 01:48:03;;;;;;;1.33;0.98;;;9.50;88.60;;;;;;4982397;28;20042;-62
2024/02/08 01:50:40;;;;;;;0.93;0.90;;;9.50;88.10;;;;;;4986149;28;20184;-62
2024/02/08 01:53:13;;;;;;;3.22;1.10;;;9.50;88.70;;;;;;4976319;28;20035;-60
2024/02/08 01:55:40;;;;;;;2.05;0.80;;;9.50;88.00;;;;;;4977674;28;20034;-62
2024/02/08 01:58:07;;;;;;;1.65;1.00;;;9.50;88.00;;;;;;4985014;28;20043;-62
2024/02/08 02:00:36;;;;;;;1.50;0.70;;;9.50;88.00;;;;;;4976723;28;20133;-62
2024/02/08 02:03:03;;;;;;;0.90;0.90;;;9.50;88.00;;;;;;4983303;28;20085;-62
2024/02/08 02:05:29;;;;;;;2.78;1.17;;;9.50;88.00;;;;;;4980136;28;20039;-61
2024/02/08 02:07:57;;;;;;;1.45;0.90;;;9.50;88.10;;;;;;4984320;28;20049;-60
2024/02/08 02:10:29;;;;;;;1.17;1.05;;;9.60;88.10;;;;;;4979519;28;20062;-62
2024/02/08 02:13:00;;;;;;;1.23;0.98;;;9.50;88.00;;;;;;4977867;28;20394;-63
2024/02/08 02:15:31;;;;;;;1.42;0.80;;;9.50;88.00;;;;;;4984526;28;20118;-62
2024/02/08 02:18:00;;;;;;;0.80;0.80;;;9.60;88.00;;;;;;4984393;28;20057;-63
2024/02/08 02:20:29;;;;;;;1.42;0.90;;;9.60;88.00;;;;;;4984615;28;20052;-63
2024/02/08 02:23:00;;;;;;;1.95;0.90;;;9.60;87.80;;;;;;4983142;28;20042;-63
2024/02/08 02:25:29;;;;;;;1.00;0.80;;;9.60;88.00;;;;;;4982295;28;20038;-63
2024/02/08 02:28:00;;;;;;;1.70;0.90;;;9.60;88.30;;;;;;4977927;28;20089;-61
2024/02/08 02:30:30;;;;;;;1.27;1.17;;;9.70;88.30;;;;;;4986505;28;20070;-62
2024/02/08 02:32:59;;;;;;;1.17;0.88;;;9.70;87.90;;;;;;4983726;28;20149;-61
2024/02/08 02:35:28;;;;;;;1.08;0.88;;;9.70;88.00;;;;;;4984434;28;20049;-62
2024/02/08 02:37:54;;;;;;;1.17;0.93;;;9.70;87.90;;;;;;4981415;28;21579;-62
2024/02/08 02:40:23;;;;;;;1.20;0.85;;;9.70;87.60;;;;;;4983538;28;20034;-61
2024/02/08 02:42:50;;;;;;;1.10;0.98;;;9.70;87.80;;;;;;4986741;28;20038;-63
2024/02/08 02:45:21;;;;;;;0.77;0.70;;;9.80;87.80;;;;;;4984547;28;20581;-63
2024/02/08 02:47:49;;;;;;;1.48;0.88;;;9.80;87.70;;;;;;4978727;28;20120;-62
2024/02/08 02:50:17;;;;;;;1.13;0.80;;;9.80;87.80;;;;;;4983276;28;20041;-62
2024/02/08 02:52:46;;;;;;;1.45;0.85;;;9.80;87.60;;;;;;4983175;28;20045;-61
2024/02/08 02:55:12;;;;;;;1.45;0.88;;;9.80;87.60;;;;;;4982106;28;20039;-62
2024/02/08 02:57:41;;;;;;;1.70;0.95;;;9.80;87.50;;;;;;4975122;28;20406;-63
2024/02/08 03:03:12;;;;;;;0.93;0.70;;;9.80;87.50;;;;;;4971802;28;20099;-62
2024/02/08 03:05:42;;;;;;;1.50;0.85;;;9.80;87.40;;;;;;4981841;28;20030;-62
2024/02/08 03:08:08;;;;;;;0.95;0.75;;;9.80;87.50;;;;;;4982170;28;20054;-63
2024/02/08 03:10:37;;;;;;;1.35;0.85;;;9.80;87.50;;;;;;4985298;28;20096;-62
2024/02/08 03:13:03;;;;;;;1.23;0.90;;;9.80;87.50;;;;;;4986481;28;20114;-61
2024/02/08 03:15:29;;;;;;;0.80;0.80;;;9.80;87.50;;;;;;4984274;28;20046;-60
2024/02/08 03:17:55;;;;;;;0.80;0.80;;;9.80;87.40;;;;;;4986207;28;20042;-61
2024/02/08 03:20:24;;;;;;;0.93;0.88;;;9.90;87.40;;;;;;4981455;28;20046;-61
2024/02/08 03:22:50;;;;;;;1.70;1.00;;;9.90;87.40;;;;;;4984342;28;20509;-60
2024/02/08 03:25:16;;;;;;;2.97;0.80;;;9.80;87.30;;;;;;4985114;28;20030;-61
2024/02/08 03:27:42;;;;;;;1.58;0.80;;;9.80;87.20;;;;;;4979262;28;20240;-61
2024/02/08 03:30:22;;;;;;;1.35;1.02;;;9.90;87.30;;;;;;4985399;28;20034;-62
2024/02/08 03:32:55;;;;;;;0.82;0.77;;;9.90;87.30;;;;;;4983784;28;20041;-62
2024/02/08 03:35:25;;;;;;;1.10;0.80;;;9.90;87.30;;;;;;4979301;28;20034;-62
2024/02/08 03:37:54;;;;;;;0.65;0.60;;;9.90;87.40;;;;;;4982377;28;20084;-63
2024/02/08 03:40:20;;;;;;;1.70;0.93;;;9.90;87.60;;;;;;4984020;28;20447;-63
2024/02/08 03:42:50;;;;;;;1.33;0.68;;;9.80;87.50;;;;;;4977153;28;20031;-62
2024/02/08 03:45:23;;;;;;;1.08;0.75;;;9.80;87.50;;;;;;4985640;28;20085;-62
2024/02/08 03:47:51;;;;;;;1.35;0.60;;;9.90;87.80;;;;;;4981878;28;20038;-62
2024/02/08 03:50:18;;;;;;;0.90;0.70;;;9.80;87.60;;;;;;4982925;28;20587;-63
2024/02/08 03:52:44;;;;;;;1.77;0.70;;;9.80;87.80;;;;;;4982390;28;20034;-62
2024/02/08 03:55:13;;;;;;;1.65;0.85;;;9.80;87.90;;;;;;4983875;28;20042;-61
2024/02/08 03:57:39;;;;;;;1.25;0.90;;;9.80;87.90;;;;;;4988363;28;20092;-62
2024/02/08 04:00:07;;;;;;;3.08;0.93;;;9.80;87.80;;;;;;4985015;28;20035;-59
2024/02/08 04:02:35;;;;;;;1.45;1.00;;;9.80;88.80;;;;;;4985900;28;20038;-63
2024/02/08 04:05:05;;;;;;;1.27;0.80;;;9.70;88.00;;;;;;4983798;28;20084;-60
2024/02/08 04:10:29;;;;;;;1.00;0.90;;;9.70;88.20;;;;;;4989088;28;20045;-62
2024/02/08 04:54:02;;;;;;;1.52;0.70;;;9.80;87.70;;;;;;4981422;28;20061;-60
2024/02/08 04:56:28;;;;;;;1.02;0.82;;;9.80;87.70;;;;;;4979771;28;20034;-60
2024/02/08 04:58:54;;;;;;;1.08;0.80;;;9.80;87.80;;;;;;4983152;28;20068;-63
2024/02/08 05:01:20;;;;;;;0.88;0.88;;;9.80;87.80;;;;;;4981486;28;20055;-62
2024/02/08 05:03:47;;;;;;;1.23;0.90;;;9.80;87.70;;;;;;4980797;28;20027;-60
2024/02/08 05:06:18;;;;;;;2.28;0.80;;;9.80;87.80;;;;;;4982387;28;20025;-62
2024/02/08 05:08:49;;;;;;;1.38;0.98;;;9.90;87.90;;;;;;4981257;28;20041;-62
2024/02/08 05:11:15;;;;;;;1.95;1.20;;;9.90;88.00;;;;;;4984489;28;20031;-62
2024/02/08 05:13:51;;;;;;;2.00;1.10;;;9.90;87.80;;;;;;4981035;28;20039;-62
2024/02/08 05:16:18;;;;;;;1.73;1.10;;;9.90;87.90;;;;;;4979950;28;20034;-62
2024/02/08 05:18:44;;;;;;;1.88;1.02;;;9.90;87.80;;;;;;4981597;28;20031;-62
2024/02/08 05:21:14;;;;;;;1.20;1.05;;;9.90;87.80;;;;;;4986181;28;20026;-63
2024/02/08 05:23:42;;;;;;;1.63;0.70;;;9.90;88.00;;;;;;4980773;28;20023;-62
2024/02/08 05:26:18;;;;;;;1.55;1.15;;;9.90;87.70;;;;;;4983705;28;20057;-61
2024/02/08 05:28:44;;;;;;;1.83;1.25;;;9.90;87.70;;;;;;4984310;28;20121;-63
2024/02/08 05:31:10;;;;;;;1.40;1.25;;;9.90;87.80;;;;;;4978699;28;20144;-62
2024/02/08 05:33:40;;;;;;;2.33;1.05;;;9.90;87.60;;;;;;4981578;28;20129;-60
2024/02/08 05:36:17;;;;;;;1.60;1.15;;;9.90;87.80;;;;;;4986056;28;20049;-62
2024/02/08 05:38:42;;;;;;;2.83;1.10;;;9.90;87.60;;;;;;4982923;28;20089;-61
2024/02/08 05:41:10;;;;;;;1.52;1.25;;;9.90;87.60;;;;;;4988706;28;20030;-62
2024/02/08 05:43:45;;;;;;;1.15;1.00;;;9.90;87.70;;;;;;4978395;28;20039;-62
2024/02/08 05:46:19;;;;;;;1.02;0.90;;;9.90;87.60;;;;;;4981186;28;20042;-63
2024/02/08 05:48:51;;;;;;;2.72;1.10;;;9.90;87.60;;;;;;4986923;28;20510;-61
2024/02/08 05:51:25;;;;;;;1.75;1.05;;;9.90;87.40;;;;;;4986220;28;20545;-63
2024/02/08 05:53:53;;;;;;;1.23;0.85;;;9.90;87.30;;;;;;4988923;28;20033;-62
2024/02/08 05:56:21;;;;;;;1.00;0.90;;;9.90;87.30;;;;;;4980999;28;20026;-62
2024/02/08 05:58:51;;;;;;;0.80;0.80;;;9.90;87.30;;;;;;4981554;28;20035;-60
2024/02/08 06:01:21;;;;;;;1.08;0.90;;;9.90;87.30;;;;;;4983826;28;20045;-61
2024/02/08 06:03:50;;;;;;;0.98;0.77;;;9.90;87.30;;;;;;4985945;28;20455;-59
2024/02/08 06:06:37;;;;;;;1.30;0.75;;;9.90;87.30;;;;;;4985699;28;20549;-63
2024/02/08 06:09:33;;;;;;;0.77;0.77;;;9.90;87.30;;;;;;4981643;28;20502;-62
2024/02/08 06:11:49;;;;;;;1.88;1.08;;;9.90;87.30;;;;;;4979724;28;20521;-61
2024/02/08 06:14:22;;;;;;;1.77;0.90;;;10.00;87.20;;;;;;4988594;28;20125;-62
2024/02/08 06:16:53;;;;;;;2.03;0.90;;;10.00;87.20;;;;;;4983924;28;20039;-61
2024/02/08 06:19:21;;;;;;;2.35;0.85;;;10.00;87.20;;;;;;4978930;28;20034;-63
2024/02/08 06:21:57;;;;;;;1.13;0.88;;;10.00;87.10;;;;;;4976926;28;20042;-61
2024/02/08 06:26:58;;;;;;;0.80;0.73;;;10.00;87.10;;;;;;4986527;28;20062;-62
2024/02/08 06:29:46;;;;;;;1.05;0.70;;;10.00;87.10;;;;;;4982526;28;20065;-62
2024/02/08 06:32:23;;;;;;;1.85;0.90;;;10.00;87.00;;;;;;4979795;28;20114;-62
2024/02/08 06:35:09;;;;;;;2.17;1.02;;;10.00;86.90;;;;;;4987633;28;20117;-61
2024/02/08 06:37:44;;;;;;;0.80;0.70;;;10.00;86.90;;;;;;4987957;28;20130;-63
2024/02/08 07:37:25;;;;;;;1.83;0.68;;;10.20;86.20;;;;;;4982150;28;20118;-64
2024/02/08 07:39:54;;;;;;;0.70;0.70;;;10.30;86.20;;;;;;4981416;28;20116;-63
2024/02/08 07:42:29;;;;;;;0.50;0.50;;;10.20;86.20;;;;;;4976683;28;20023;-62
2024/02/08 07:45:07;;;;;;;1.35;0.70;;;10.30;86.20;;;;;;4985856;28;20042;-63
2024/02/08 07:47:33;;;;;;;1.77;0.80;;;10.30;86.20;;;;;;4976169;28;20053;-62
2024/02/08 07:50:09;;;;;;;1.13;0.80;;;10.30;86.90;;;;;;4974429;28;20085;-63
2024/02/08 07:52:55;;;;;;;0.85;0.77;;;10.30;86.00;;;;;;4979012;28;20070;-63
2024/02/08 07:55:46;;;;;;;0.75;0.60;;;10.40;86.10;;;;;;4979718;28;20121;-63
2024/02/08 07:58:10;;;;;;;1.13;0.70;;;10.40;86.00;;;;;;4983805;28;20042;-63
2024/02/08 08:03:09;;;;;;;1.05;0.90;;;10.40;85.80;;;;;;4984683;28;20035;-63
2024/02/08 08:05:41;;;;;;;0.77;0.50;;;10.50;85.80;;;;;;4978869;28;20547;-63
2024/02/08 08:08:31;;;;;;;0.80;0.70;;;10.50;85.90;;;;;;4981625;28;20050;-63
2024/02/08 08:11:03;;;;;;;0.60;0.50;;;10.50;85.90;;;;;;4980729;28;20193;-63
2024/02/08 08:18:58;;;;;;;1.10;0.50;;;10.60;85.70;;;;;;4979307;28;20042;-63
2024/02/08 08:21:29;;;;;;;1.88;0.60;;;10.60;85.70;;;;;;4976967;28;20026;-62
2024/02/08 08:24:02;;;;;;;1.80;0.77;;;10.70;85.60;;;;;;4985637;28;20078;-61
2024/02/08 08:26:39;;;;;;;0.85;0.60;;;10.70;85.50;;;;;;4982027;28;20034;-61
2024/02/08 08:29:13;;;;;;;0.82;0.45;;;10.70;85.50;;;;;;4980480;28;20065;-62
2024/02/08 08:32:41;;;;;;;0.73;0.70;;;10.80;85.50;;;;;;4981670;28;20037;-63
2024/02/08 08:37:02;;;;;;;1.20;0.60;;;10.90;85.90;;;;;;4979727;28;20085;-60
2024/02/08 08:40:00;;;;;;;1.15;0.60;;;10.90;86.10;;;;;;4984228;28;20062;-62
2024/02/08 08:42:28;;;;;;;1.00;0.50;;;11.00;86.00;;;;;;4982855;28;20035;-62
2024/02/08 08:44:59;;;;;;;0.73;0.50;;;11.00;85.80;;;;;;4988312;28;20042;-63
2024/02/08 08:47:27;;;;;;;1.15;0.50;;;11.10;85.70;;;;;;4984577;28;20042;-63
2024/02/08 08:49:54;;;;;;;1.70;0.50;;;11.20;85.60;;;;;;4989101;28;20231;-63
2024/02/08 08:52:23;;;;;;;1.38;0.57;;;11.20;85.30;;;;;;4988221;28;20141;-62
2024/02/08 08:55:10;;;;;;;0.77;0.63;;;11.20;85.20;;;;;;4985254;28;20034;-63
2024/02/08 08:57:37;;;;;;;0.90;0.80;;;11.30;85.30;;;;;;4986223;28;20463;-63
2024/02/08 09:00:09;;;;;;;0.55;0.55;;;11.30;85.20;;;;;;4978071;28;20035;-62
2024/02/08 09:02:40;;;;;;;0.60;0.60;;;11.40;85.00;;;;;;4977450;28;20521;-64
2024/02/08 09:05:17;;;;;;;0.93;0.40;;;11.40;85.00;;;;;;4989301;28;20054;-62
2024/02/08 09:07:45;;;;;;;0.47;0.43;;;11.40;84.90;;;;;;4984502;28;20046;-62
2024/02/08 09:10:14;;;;;;;0.57;0.45;;;11.40;84.80;;;;;;4987703;28;20034;-63
2024/02/08 09:12:40;;;;;;;0.85;0.60;;;11.50;85.00;;;;;;4979273;28;20522;-63
2024/02/08 09:15:26;;;;;;;1.02;0.57;;;11.50;84.90;;;;;;4987182;28;20129;-59
2024/02/08 09:17:52;;;;;;;0.60;0.60;;;11.50;84.90;;;;;;4987929;28;20494;-61
2024/02/08 09:20:28;;;;;;;1.23;0.90;;;11.50;84.80;;;;;;4984023;28;20497;-60
2024/02/08 09:22:57;;;;;;;2.30;0.70;;;11.50;84.80;;;;;;4986426;28;20146;-61
2024/02/08 09:25:23;;;;;;;1.85;0.70;;;11.50;84.90;;;;;;4987629;28;20539;-61
2024/02/08 09:27:55;;;;;;;0.73;0.73;;;11.60;85.00;;;;;;4980450;28;20042;-62
2024/02/08 09:30:37;;;;;;;0.47;0.40;;;11.60;85.00;;;;;;4982729;28;20418;-63
2024/02/08 09:33:29;;;;;;;0.77;0.50;;;11.60;85.00;;;;;;4987781;28;20049;-61
2024/02/08 09:36:02;;;;;;;0.60;0.50;;;11.70;85.00;;;;;;4981783;28;20047;-62
2024/02/08 09:38:42;;;;;;;0.93;0.57;;;11.70;85.00;;;;;;4983383;28;20035;-63
2024/02/08 09:41:15;;;;;;;0.60;0.50;;;11.70;85.10;;;;;;4980442;28;20434;-61
2024/02/08 09:43:45;;;;;;;0.68;0.68;;;11.70;85.90;;;;;;4984482;28;20046;-62
2024/02/08 09:49:12;;;;;;;0.60;0.60;;;11.80;85.20;;;;;;4982007;28;20042;-62
2024/02/08 09:51:51;;;;;;;1.05;0.55;;;11.90;85.10;;;;;;4984495;28;20453;-62
2024/02/08 09:54:27;;;;;;;1.30;0.80;;;12.00;85.00;;;;;;4987362;28;20042;-60
2024/02/08 09:57:20;;;;;;;2.65;0.63;;;12.00;84.90;;;;;;4975777;28;20047;-62
2024/02/08 09:59:59;;;;;;;1.45;0.60;;;12.10;84.80;;;;;;4985314;28;20361;-62
2024/02/08 10:02:32;;;;;;;0.35;0.32;;;12.10;84.80;;;;;;4983377;28;20046;-63
2024/02/08 10:04:58;;;;;;;0.85;0.60;;;12.20;84.70;;;;;;4980008;28;20121;-63
2024/02/08 10:07:37;;;;;;;0.68;0.50;;;12.20;84.60;;;;;;4987723;28;20053;-62
2024/02/08 10:10:26;;;;;;;0.55;0.50;;;12.30;84.50;;;;;;4984483;28;20038;-61
2024/02/08 10:13:04;;;;;;;2.22;0.40;;;12.30;84.30;;;;;;4987023;28;20417;-63
2024/02/08 10:15:44;;;;;;;0.77;0.50;;;12.40;84.00;;;;;;4985596;28;20153;-63
2024/02/08 10:18:23;;;;;;;1.08;0.40;;;12.40;83.90;;;;;;4984930;28;20034;-63
2024/02/08 10:20:49;;;;;;;1.50;0.40;;;12.50;83.80;;;;;;4987042;28;20053;-62
2024/02/08 10:23:34;;;;;;;0.82;0.40;;;12.50;83.70;;;;;;4980729;28;20494;-62
2024/02/08 10:28:53;;;;;;;;;;;12.50;83.40;;;;;;4984723;28;20100;-62
2024/02/08 10:31:24;;;;;;;4.07;0.80;;;12.60;83.30;;;;;;4978866;28;20417;-63
2024/02/08 10:33:57;;;;;;;2.47;0.40;;;12.60;83.10;;;;;;4981129;28;20109;-63
2024/02/08 10:36:31;;;;;;;0.77;0.40;;;12.60;83.20;;;;;;4986055;28;20142;-62
2024/02/08 10:39:08;;;;;;;0.43;0.40;;;12.60;83.20;;;;;;4982356;28;20053;-63
2024/02/08 10:44:22;;;;;;;0.47;0.40;;;12.70;83.10;;;;;;4982289;28;20410;-63
2024/02/08 10:46:55;;;;;;;2.53;0.45;;;12.70;83.80;;;;;;4984884;28;20097;-63
2024/02/08 10:49:22;;;;;;;1.02;0.40;;;12.70;82.90;;;;;;4985167;28;20034;-63
2024/02/08 10:51:49;;;;;;;1.77;0.50;;;12.70;82.90;;;;;;4980017;28;20038;-60
2024/02/08 10:54:23;;;;;;;1.55;0.30;;;12.80;82.70;;;;;;4986646;28;20042;-62
2024/02/08 10:57:08;;;;;;;0.57;0.40;;;12.80;82.60;;;;;;4981816;28;20042;-63
2024/02/08 10:59:47;;;;;;;;;;;12.80;82.60;;;;;;4983235;28;20470;-63
2024/02/08 11:07:45;;;;;;;0.75;0.30;;;12.80;82.70;;;;;;4983245;28;20465;-63
2024/02/08 11:10:12;;;;;;;0.55;0.38;;;12.90;82.90;;;;;;4978413;28;20035;-62
2024/02/08 11:12:40;;;;;;;0.73;0.40;;;12.80;82.70;;;;;;4983677;28;20177;-61
2024/02/08 11:15:14;;;;;;;0.38;0.30;;;12.90;82.90;;;;;;4985231;28;20038;-62
2024/02/08 11:17:49;;;;;;;0.43;0.25;;;12.90;82.70;;;;;;4986187;28;20130;-63
2024/02/08 11:20:43;;;;;;;0.20;0.20;;;12.90;82.70;;;;;;4985892;28;20030;-62
2024/02/08 11:23:11;;;;;;;0.50;0.20;;;13.00;82.90;;;;;;4983160;28;20419;-62
2024/02/08 11:25:44;;;;;;;0.65;0.20;;;13.00;82.80;;;;;;4985591;28;20042;-63
2024/02/08 11:28:26;;;;;;;0.50;0.35;;;13.10;82.90;;;;;;4981474;28;20038;-62
2024/02/08 11:30:53;;;;;;;0.35;0.32;;;13.00;83.00;;;;;;4985227;28;20042;-63
2024/02/08 11:33:31;;;;;;;0.30;0.30;;;13.10;83.10;;;;;;4987013;28;20042;-63
2024/02/08 11:36:12;;;;;;;0.30;0.30;;;13.10;82.90;;;;;;4982031;28;20122;-63
2024/02/08 11:38:57;;;;;;;1.00;0.30;;;13.20;83.10;;;;;;4983181;28;20045;-63
2024/02/08 11:41:25;;;;;;;0.32;0.32;;;13.20;83.80;;;;;;4985963;28;20031;-63
2024/02/08 11:44:05;;;;;;;0.55;0.40;;;13.30;82.70;;;;;;4985547;28;20524;-61
2024/02/08 11:46:37;;;;;;;0.38;0.30;;;13.30;82.20;;;;;;4978525;28;20058;-64
2024/02/08 11:49:15;;;;;;;0.40;0.40;;;13.30;83.20;;;;;;4984179;28;20034;-62
2024/02/08 11:51:48;;;;;;;1.42;0.30;;;13.30;82.40;;;;;;4978311;28;20031;-61
2024/02/08 11:54:28;;;;;;;0.52;0.30;;;13.30;82.60;;;;;;4984936;28;20026;-62
2024/02/08 11:56:57;;;;;;;0.20;0.20;;;13.40;82.40;;;;;;4985795;28;20046;-62
2024/02/08 11:59:24;;;;;;;0.45;0.20;;;13.40;82.50;;;;;;4980765;28;20465;-63
2024/02/08 12:01:51;;;;;;;0.20;0.20;;;13.40;82.70;;;;;;4984441;28;20703;-62
2024/02/08 12:04:17;;;;;;;0.30;0.20;;;13.50;82.70;;;;;;4981552;28;20034;-63
2024/02/08 12:06:46;;;;;;;1.23;0.20;;;13.50;82.50;;;;;;4983799;28;20042;-63
2024/02/08 12:09:22;;;;;;;2.40;0.47;;;13.60;82.30;;;;;;4983285;28;20462;-62
2024/02/08 12:11:49;;;;;;;0.20;0.20;;;13.70;82.20;;;;;;4984192;28;20037;-62
2024/02/08 12:14:17;;;;;;;0.20;0.20;;;13.70;82.00;;;;;;4984253;28;20030;-63
2024/02/08 12:16:46;;;;;;;0.32;0.20;;;13.80;81.90;;;;;;4979944;28;20129;-62
2024/02/08 12:19:19;;;;;;;0.20;0.20;;;13.80;81.60;;;;;;4984145;28;20035;-62
2024/02/08 12:21:56;;;;;;;2.67;0.50;;;13.90;81.30;;;;;;4991195;28;20130;-62
2024/02/08 12:24:23;;;;;;;0.73;0.32;;;13.90;80.80;;;;;;4987770;28;20410;-63
2024/02/08 12:26:54;;;;;;;0.20;0.20;;;14.00;81.00;;;;;;4987385;28;20041;-61
2024/02/08 12:29:25;;;;;;;1.88;0.20;;;14.00;80.60;;;;;;4995482;28;20027;-61
2024/02/08 12:31:54;;;;;;;0.60;0.20;;;14.00;80.00;;;;;;4988932;28;20057;-61
2024/02/08 12:34:31;;;;;;;1.08;0.20;;;14.00;80.10;;;;;;4990223;28;20076;-62
2024/02/08 12:36:59;;;;;;;0.30;0.30;;;14.00;79.80;;;;;;4986313;28;20500;-63
2024/02/08 12:39:26;;;;;;;0.68;0.30;;;13.90;79.60;;;;;;4980860;28;20074;-61
2024/02/08 12:41:54;;;;;;;0.52;0.30;;;13.90;79.50;;;;;;4984530;28;20084;-60
2024/02/08 12:44:20;;;;;;;0.30;0.20;;;13.90;79.60;;;;;;4986694;28;20034;-60
2024/02/08 12:46:49;;;;;;;1.30;0.25;;;13.80;79.60;;;;;;4984401;28;20540;-60
2024/02/08 12:49:15;;;;;;;0.45;0.32;;;13.80;79.80;;;;;;4991143;28;20069;-61
2024/02/08 12:51:42;;;;;;;0.52;0.30;;;13.80;80.70;;;;;;4987105;28;20026;-61
2024/02/08 12:54:07;;;;;;;0.30;0.25;;;13.80;80.00;;;;;;4985829;28;20031;-63
2024/02/08 12:56:36;;;;;;;0.50;0.50;;;13.70;79.90;;;;;;4981248;28;20084;-63
2024/02/08 12:59:04;;;;;;;2.35;0.70;;;13.70;79.90;;;;;;4983556;28;20397;-63
2024/02/08 13:01:44;;;;;;;0.43;0.40;;;13.70;80.00;;;;;;4995034;28;20038;-62
2024/02/08 13:04:15;;;;;;;1.95;0.90;;;13.70;79.80;;;;;;4982130;28;20089;-61
2024/02/08 13:06:41;;;;;;;0.82;0.40;;;13.70;79.80;;;;;;4986144;28;20445;-62
2024/02/08 13:09:25;;;;;;;1.08;0.50;;;13.60;79.80;;;;;;4977823;28;20034;-63
2024/02/08 13:12:23;;;;;;;1.45;0.70;;;13.50;79.60;;;;;;4986943;28;20035;-62
2024/02/08 13:14:48;;;;;;;1.63;0.60;;;13.50;79.60;;;;;;4987313;28;20061;-60
2024/02/08 13:17:22;;;;;;;1.88;0.80;;;13.40;79.80;;;;;;4989923;28;20169;-61
2024/02/08 13:19:55;;;;;;;3.50;0.68;;;13.40;79.90;;;;;;4988030;28;20536;-62
2024/02/08 13:22:25;;;;;;;5.30;0.88;;;13.40;80.10;;;;;;4987217;28;20039;-60
2024/02/08 13:24:54;;;;;;;2.67;0.95;;;13.30;80.10;;;;;;4979523;28;20038;-62
2024/02/08 13:27:30;;;;;;;2.13;0.90;;;13.30;80.30;;;;;;4988530;28;20046;-62
2024/02/08 13:29:59;;;;;;;3.97;0.75;;;13.30;80.30;;;;;;4986710;28;20042;-61
2024/02/08 13:32:29;;;;;;;3.20;1.00;;;13.30;80.30;;;;;;4988187;28;20052;-62
2024/02/08 13:35:02;;;;;;;3.50;0.95;;;13.30;80.30;;;;;;4984986;28;20038;-63
2024/02/08 13:37:28;;;;;;;3.35;0.80;;;13.30;80.20;;;;;;4977998;28;20038;-63
2024/02/08 13:39:59;;;;;;;5.75;1.20;;;13.30;80.30;;;;;;4982836;28;20064;-61
2024/02/08 13:42:31;;;;;;;4.70;1.00;;;13.20;80.20;;;;;;4988288;28;20092;-63
2024/02/08 13:45:01;;;;;;;2.90;0.90;;;13.30;80.30;;;;;;4985807;28;20081;-63
2024/02/08 13:47:31;;;;;;;3.13;0.85;;;13.20;80.30;;;;;;4982304;28;20089;-62
2024/02/08 13:49:59;;;;;;;4.22;0.93;;;13.20;80.10;;;;;;4989198;28;20034;-63
2024/02/08 13:52:30;;;;;;;3.60;0.93;;;13.20;80.30;;;;;;4987941;28;20498;-63
2024/02/08 13:54:58;;;;;;;4.63;1.13;;;13.20;80.20;;;;;;4981873;28;20038;-61
2024/02/08 13:57:24;;;;;;;4.13;1.40;;;13.20;80.10;;;;;;4990583;28;20497;-63
2024/02/08 13:59:49;;;;;;;6.13;1.30;;;13.20;80.00;;;;;;4984635;28;20097;-63
2024/02/08 14:02:17;;;;;;;2.08;0.95;;;13.20;80.00;;;;;;4984443;28;20035;-64
2024/02/08 14:04:49;;;;;;;10.85;1.70;;;13.20;80.10;;;;;;4982012;28;20081;-62
2024/02/08 14:07:16;;;;;;;7.88;1.50;;;13.20;80.10;;;;;;4974596;28;20122;-62
2024/02/08 14:09:43;;;;;;;5.47;1.40;;;13.20;80.10;;;;;;4989002;28;20038;-62
2024/02/08 14:12:09;;;;;;;5.40;1.38;;;13.20;81.10;;;;;;4983210;28;20031;-64
2024/02/08 14:14:42;;;;;;;8.18;1.50;;;13.20;80.20;;;;;;4989326;28;20049;-63
2024/02/08 14:17:10;;;;;;;7.22;1.30;;;13.20;80.10;;;;;;4983478;28;20045;-64
2024/02/08 14:19:42;;;;;;;10.65;1.52;;;13.30;80.00;;;;;;4975412;28;20070;-64
2024/02/08 14:22:09;;;;;;;7.57;1.60;;;13.30;80.00;;;;;;4986618;28;20038;-63
2024/02/08 14:24:38;;;;;;;6.65;1.40;;;13.30;80.00;;;;;;4985224;28;20070;-60
2024/02/08 14:27:05;;;;;;;5.53;1.50;;;13.30;79.80;;;;;;4984194;28;20097;-63
2024/02/08 14:29:37;;;;;;;7.82;1.33;;;13.30;79.80;;;;;;4984774;28;20042;-63
2024/02/08 14:32:08;;;;;;;9.25;1.67;;;13.30;79.80;;;;;;4977534;28;20166;-61
2024/02/08 14:34:36;;;;;;;12.02;1.95;;;13.30;79.70;;;;;;4984559;28;20046;-63
2024/02/08 14:37:05;;;;;;;6.88;1.38;;;13.30;79.50;;;;;;4985988;28;20560;-63
2024/02/08 14:39:33;;;;;;;6.75;1.70;;;13.30;79.40;;;;;;4982051;28;20046;-62
2024/02/08 14:42:11;;;;;;;3.60;1.27;;;13.30;79.30;;;;;;4983267;28;20080;-64
2024/02/08 14:44:41;;;;;;;6.20;1.90;;;13.30;79.20;;;;;;4981902;28;20418;-64
2024/02/08 14:47:08;;;;;;;7.15;1.48;;;13.30;79.20;;;;;;4983509;28;20161;-63
2024/02/08 14:49:54;;;;;;;8.20;1.98;;;13.30;79.30;;;;;;4989989;28;20047;-62
2024/02/08 14:52:34;;;;;;;8.90;1.70;;;13.30;79.30;;;;;;4981923;28;20039;-62
2024/02/08 14:55:10;;;;;;;7.13;1.73;;;13.30;79.10;;;;;;4983532;28;20034;-62
2024/02/08 14:57:42;;;;;;;10.63;1.80;;;13.30;79.10;;;;;;4988728;28;20034;-62
2024/02/08 15:03:09;;;;;;;8.40;1.95;;;13.20;78.90;;;;;;4925541;29;20032;-63
2024/02/08 15:05:47;;;;;;;13.45;2.00;;;13.20;78.90;;;;;;4974565;28;20498;-62
2024/02/08 15:10:59;;;;;;;6.10;1.83;;;13.20;79.10;;;;;;4984972;28;20034;-63
2024/02/08 15:13:25;;;;;;;9.05;2.67;;;13.20;79.10;;;;;;4986786;28;20053;-62
2024/02/08 15:15:54;;;;;;;10.98;2.38;;;13.10;79.10;;;;;;4983014;28;20034;-62
2024/02/08 15:18:30;;;;;;;7.63;1.80;;;13.10;79.10;;;;;;4984367;28;20506;-62
2024/02/08 15:20:58;;;;;;;7.07;1.60;;;13.10;79.10;;;;;;4986151;28;20092;-62
2024/02/08 15:26:37;;;;;;;7.53;2.03;;;13.10;79.10;;;;;;4961068;28;20038;-62
2024/02/08 15:29:07;;;;;;;7.07;1.67;;;13.10;79.20;;;;;;4962944;28;20089;-62